OOCL California — VRWC8 — position and weather

sailwx.info

Track history (hours):
 
Tides and Currents Weather Stations Pressure Air Temp Water Temp Dewpoint Dewpoint Depression Visibility Wind Speed Wind Dir Waves Ship Positions

OOCL California

Last reported at 2014-Dec-23 03:32 UTC. Time now 2014-Dec-23 04:26 UTC.
Position N 22°20' E 114°08'.

Length 276 m; beam 40 m; draft 14 m.

Type: Cargo ship. MMSI: 477704000.

Date/timePositionNaut miles runAvg speedWind from/ knotsBaromVisibWave heightAir tempDewpointWater temp
2014-Dec-23 03:32N 22°20' E 114°08'0 0.0
2014-Dec-23 02:32N 22°20' E 114°08'0 0.0
2014-Dec-23 01:14N 22°20' E 114°08'0 0.0
2014-Dec-23 00:26N 22°20' E 114°08'0 0.0
2014-Dec-22 23:32N 22°20' E 114°08'0 0.0
2014-Dec-22 22:29N 22°20' E 114°08'0 0.0
2014-Dec-22 21:29N 22°20' E 114°08'0 0.0
2014-Dec-22 20:32N 22°20' E 114°08'0 0.0
2014-Dec-22 19:32N 22°20' E 114°08'0 0.0
2014-Dec-22 18:29N 22°20' E 114°08'0 0.0
2014-Dec-22 17:32N 22°20' E 114°08'0 0.0
2014-Dec-22 16:32N 22°20' E 114°08'0 0.0
2014-Dec-22 15:29N 22°20' E 114°08'0 0.0
2014-Dec-22 14:32N 22°20' E 114°08'0 0.0
2014-Dec-22 13:29N 22°20' E 114°08'0 0.0
2014-Dec-22 12:32N 22°20' E 114°08'3 2.7
2014-Dec-22 11:33N 22°19' E 114°05'0 0.1
2014-Dec-22 10:33N 22°19' E 114°05'7 6.7
2014-Dec-22 09:32N 22°21' E 113°58'7 7.5
2014-Dec-22 08:33N 22°27' E 113°54'0 0.3
2014-Dec-22 07:31N 22°27' E 113°54'0 0.0
2014-Dec-22 06:31N 22°27' E 113°54'0 0.0
2014-Dec-22 05:31N 22°27' E 113°54'0 0.0
2014-Dec-22 04:31N 22°27' E 113°54'0 0.0
2014-Dec-22 03:31N 22°27' E 113°54'0 0.0
2014-Dec-22 02:31N 22°27' E 113°54'0 0.0
2014-Dec-22 01:31N 22°27' E 113°54'0 0.0
2014-Dec-22 00:31N 22°27' E 113°54'0 0.0
2014-Dec-21 23:07N 22°27' E 113°54'0 0.0
2014-Dec-21 22:31N 22°27' E 113°54'0 0.0
2014-Dec-21 21:13N 22°27' E 113°54'0 0.0
2014-Dec-21 20:31N 22°27' E 113°54'0 0.0
2014-Dec-21 19:13N 22°27' E 113°54'0 0.0
2014-Dec-21 18:19N 22°27' E 113°54'0 0.0
2014-Dec-21 17:25N 22°27' E 113°54'0 0.0
2014-Dec-21 16:25N 22°27' E 113°54'0 0.1
2014-Dec-21 15:33N 22°27' E 113°54'14 7.2
2014-Dec-21 13:33N 22°18' E 114°06'1110.2
2014-Dec-21 12:27N 22°09' E 114°13'1112.0
2014-Dec-21 11:33N 22°09' E 114°25'23217.2
2014-Dec-20 22:04N 23°46' E 118°14'1018.8
2014-Dec-20 21:33N 23°52' E 118°22'3919.1
2014-Dec-20 19:29N 24°18' E 118°55'1919.3
2014-Dec-20 18:29N 24°30' E 119°11'35419.7
2014-Dec-20 00:33N 29°27' E 122°47'2719.7
2014-Dec-19 23:11N 29°52' E 123°00'3719.4
2014-Dec-19 21:16N 30°29' E 123°04'1920.5
2014-Dec-19 20:22N 30°47' E 122°58'3016.9
2014-Dec-19 18:33N 31°06' E 122°30'1312.6
2014-Dec-19 17:32N 31°08' E 122°16'1514.9
2014-Dec-19 16:34N 31°15' E 122°01'1514.8
2014-Dec-19 15:33N 31°19' E 121°44'9 8.6
2014-Dec-19 14:33N 31°22' E 121°35'0 0.0
2014-Dec-19 13:32N 31°22' E 121°35'0 0.0
2014-Dec-19 12:32N 31°22' E 121°35'0 0.0
2014-Dec-19 11:32N 31°22' E 121°35'0 0.0
2014-Dec-19 10:32N 31°22' E 121°35'0 0.0
2014-Dec-19 09:29N 31°22' E 121°35'0 0.0
2014-Dec-19 08:32N 31°22' E 121°35'0 0.0
2014-Dec-19 07:32N 31°22' E 121°35'0 0.0
2014-Dec-19 06:32N 31°22' E 121°35'0 0.1
2014-Dec-19 05:32N 31°22' E 121°35'0 0.0
2014-Dec-19 04:32N 31°22' E 121°35'0 0.1
2014-Dec-19 03:32N 31°22' E 121°35'0 0.0
2014-Dec-19 02:29N 31°22' E 121°35'0 0.1
2014-Dec-19 01:29N 31°22' E 121°35'0 0.0
2014-Dec-19 00:29N 31°22' E 121°35'0 0.0
2014-Dec-18 23:29N 31°22' E 121°35'0 0.1
2014-Dec-18 22:32N 31°22' E 121°35'0 0.0
2014-Dec-18 21:32N 31°22' E 121°35'0 0.1
2014-Dec-18 20:32N 31°23' E 121°35'0 0.0
2014-Dec-18 19:32N 31°22' E 121°35'0 0.1
2014-Dec-18 18:32N 31°22' E 121°35'0 0.1
2014-Dec-18 17:32N 31°22' E 121°35'0 0.0
2014-Dec-18 16:29N 31°22' E 121°35'0 0.1
2014-Dec-18 15:32N 31°22' E 121°35'0 0.1
2014-Dec-18 14:32N 31°22' E 121°35'0 0.1
2014-Dec-18 13:32N 31°22' E 121°35'2 2.5
2014-Dec-18 12:33N 31°22' E 121°38'1110.9
2014-Dec-18 11:33N 31°17' E 121°49'1111.2
2014-Dec-18 10:33N 31°15' E 122°02'1110.8
2014-Dec-18 09:33N 31°09' E 122°13'1010.2
2014-Dec-18 08:33N 31°06' E 122°24'11811.7
2014-Dec-17 22:30N 29°09' E 122°39'40411.8
2014-Dec-16 12:12N 22°51' E 120°00'5 8.1
2014-Dec-16 11:33N 22°47' E 120°03'9 8.6
2014-Dec-16 10:33N 22°39' E 120°07'8 8.3
2014-Dec-16 09:33N 22°33' E 120°13'6 5.9
2014-Dec-16 08:33N 22°34' E 120°19'1 0.6
2014-Dec-16 07:29N 22°34' E 120°18'0 0.1
2014-Dec-16 06:29N 22°34' E 120°18'0 0.0
2014-Dec-16 04:23N 22°34' E 120°18'0 0.0
2014-Dec-16 03:29N 22°34' E 120°18'0 0.0
2014-Dec-16 02:23N 22°34' E 120°18'0 0.0
2014-Dec-16 01:05N 22°34' E 120°18'0 0.0
2014-Dec-15 23:17N 22°34' E 120°18'0 0.0
2014-Dec-15 22:29N 22°34' E 120°18'0 0.0
2014-Dec-15 21:23N 22°34' E 120°18'0 0.0
2014-Dec-15 20:29N 22°34' E 120°18'0 0.0
2014-Dec-15 19:29N 22°34' E 120°18'0 0.0
2014-Dec-15 18:33N 22°34' E 120°18'2 1.6
2014-Dec-15 17:33N 22°33' E 120°18'7 6.6
2014-Dec-15 16:33N 22°30' E 120°11'6 6.0
2014-Dec-15 15:33N 22°24' E 120°09'1 0.7
2014-Dec-15 14:33N 22°24' E 120°08'4 3.9
2014-Dec-15 13:33N 22°20' E 120°07'9 8.8
2014-Dec-15 12:33N 22°12' E 120°08'11 8.9
2014-Dec-15 11:16N 22°02' E 120°15'  
Track history (hours):
 
Tides and Currents Weather Stations Pressure Air Temp Water Temp Dewpoint Dewpoint Depression Visibility Wind Speed Wind Dir Waves Ship Positions

OOCL California

Last reported at 2014-Dec-23 03:32 UTC. Time now 2014-Dec-23 04:26 UTC.
Position N 22°20' E 114°08'.

Length 276 m; beam 40 m; draft 14 m.

Type: Cargo ship. MMSI: 477704000.

Date/timePositionNaut miles runAvg speedWind from/ knotsBaromVisibWave heightAir tempDewpointWater temp
2014-Dec-23 03:32N 22°20' E 114°08'0 0.0
2014-Dec-23 02:32N 22°20' E 114°08'0 0.0
2014-Dec-23 01:14N 22°20' E 114°08'0 0.0
2014-Dec-23 00:26N 22°20' E 114°08'0 0.0
2014-Dec-22 23:32N 22°20' E 114°08'0 0.0
2014-Dec-22 22:29N 22°20' E 114°08'0 0.0
2014-Dec-22 21:29N 22°20' E 114°08'0 0.0
2014-Dec-22 20:32N 22°20' E 114°08'0 0.0
2014-Dec-22 19:32N 22°20' E 114°08'0 0.0
2014-Dec-22 18:29N 22°20' E 114°08'0 0.0
2014-Dec-22 17:32N 22°20' E 114°08'0 0.0
2014-Dec-22 16:32N 22°20' E 114°08'0 0.0
2014-Dec-22 15:29N 22°20' E 114°08'0 0.0
2014-Dec-22 14:32N 22°20' E 114°08'0 0.0
2014-Dec-22 13:29N 22°20' E 114°08'0 0.0
2014-Dec-22 12:32N 22°20' E 114°08'3 2.7
2014-Dec-22 11:33N 22°19' E 114°05'0 0.1
2014-Dec-22 10:33N 22°19' E 114°05'7 6.7
2014-Dec-22 09:32N 22°21' E 113°58'7 7.5
2014-Dec-22 08:33N 22°27' E 113°54'0 0.3
2014-Dec-22 07:31N 22°27' E 113°54'0 0.0
2014-Dec-22 06:31N 22°27' E 113°54'0 0.0
2014-Dec-22 05:31N 22°27' E 113°54'0 0.0
2014-Dec-22 04:31N 22°27' E 113°54'0 0.0
2014-Dec-22 03:31N 22°27' E 113°54'0 0.0
2014-Dec-22 02:31N 22°27' E 113°54'0 0.0
2014-Dec-22 01:31N 22°27' E 113°54'0 0.0
2014-Dec-22 00:31N 22°27' E 113°54'0 0.0
2014-Dec-21 23:07N 22°27' E 113°54'0 0.0
2014-Dec-21 22:31N 22°27' E 113°54'0 0.0
2014-Dec-21 21:13N 22°27' E 113°54'0 0.0
2014-Dec-21 20:31N 22°27' E 113°54'0 0.0
2014-Dec-21 19:13N 22°27' E 113°54'0 0.0
2014-Dec-21 18:19N 22°27' E 113°54'0 0.0
2014-Dec-21 17:25N 22°27' E 113°54'0 0.0
2014-Dec-21 16:25N 22°27' E 113°54'0 0.1
2014-Dec-21 15:33N 22°27' E 113°54'14 7.2
2014-Dec-21 13:33N 22°18' E 114°06'1110.2
2014-Dec-21 12:27N 22°09' E 114°13'1112.0
2014-Dec-21 11:33N 22°09' E 114°25'23217.2
2014-Dec-20 22:04N 23°46' E 118°14'1018.8
2014-Dec-20 21:33N 23°52' E 118°22'3919.1
2014-Dec-20 19:29N 24°18' E 118°55'1919.3
2014-Dec-20 18:29N 24°30' E 119°11'35419.7
2014-Dec-20 00:33N 29°27' E 122°47'2719.7
2014-Dec-19 23:11N 29°52' E 123°00'3719.4
2014-Dec-19 21:16N 30°29' E 123°04'1920.5
2014-Dec-19 20:22N 30°47' E 122°58'3016.9
2014-Dec-19 18:33N 31°06' E 122°30'1312.6
2014-Dec-19 17:32N 31°08' E 122°16'1514.9
2014-Dec-19 16:34N 31°15' E 122°01'1514.8
2014-Dec-19 15:33N 31°19' E 121°44'9 8.6
2014-Dec-19 14:33N 31°22' E 121°35'0 0.0
2014-Dec-19 13:32N 31°22' E 121°35'0 0.0
2014-Dec-19 12:32N 31°22' E 121°35'0 0.0
2014-Dec-19 11:32N 31°22' E 121°35'0 0.0
2014-Dec-19 10:32N 31°22' E 121°35'0 0.0
2014-Dec-19 09:29N 31°22' E 121°35'0 0.0
2014-Dec-19 08:32N 31°22' E 121°35'0 0.0
2014-Dec-19 07:32N 31°22' E 121°35'0 0.0
2014-Dec-19 06:32N 31°22' E 121°35'0 0.1
2014-Dec-19 05:32N 31°22' E 121°35'0 0.0
2014-Dec-19 04:32N 31°22' E 121°35'0 0.1
2014-Dec-19 03:32N 31°22' E 121°35'0 0.0
2014-Dec-19 02:29N 31°22' E 121°35'0 0.1
2014-Dec-19 01:29N 31°22' E 121°35'0 0.0
2014-Dec-19 00:29N 31°22' E 121°35'0 0.0
2014-Dec-18 23:29N 31°22' E 121°35'0 0.1
2014-Dec-18 22:32N 31°22' E 121°35'0 0.0
2014-Dec-18 21:32N 31°22' E 121°35'0 0.1
2014-Dec-18 20:32N 31°23' E 121°35'0 0.0
2014-Dec-18 19:32N 31°22' E 121°35'0 0.1
2014-Dec-18 18:32N 31°22' E 121°35'0 0.1
2014-Dec-18 17:32N 31°22' E 121°35'0 0.0
2014-Dec-18 16:29N 31°22' E 121°35'0 0.1
2014-Dec-18 15:32N 31°22' E 121°35'0 0.1
2014-Dec-18 14:32N 31°22' E 121°35'0 0.1
2014-Dec-18 13:32N 31°22' E 121°35'2 2.5
2014-Dec-18 12:33N 31°22' E 121°38'1110.9
2014-Dec-18 11:33N 31°17' E 121°49'1111.2
2014-Dec-18 10:33N 31°15' E 122°02'1110.8
2014-Dec-18 09:33N 31°09' E 122°13'1010.2
2014-Dec-18 08:33N 31°06' E 122°24'11811.7
2014-Dec-17 22:30N 29°09' E 122°39'40411.8
2014-Dec-16 12:12N 22°51' E 120°00'5 8.1
2014-Dec-16 11:33N 22°47' E 120°03'9 8.6
2014-Dec-16 10:33N 22°39' E 120°07'8 8.3
2014-Dec-16 09:33N 22°33' E 120°13'6 5.9
2014-Dec-16 08:33N 22°34' E 120°19'1 0.6
2014-Dec-16 07:29N 22°34' E 120°18'0 0.1
2014-Dec-16 06:29N 22°34' E 120°18'0 0.0
2014-Dec-16 04:23N 22°34' E 120°18'0 0.0
2014-Dec-16 03:29N 22°34' E 120°18'0 0.0
2014-Dec-16 02:23N 22°34' E 120°18'0 0.0
2014-Dec-16 01:05N 22°34' E 120°18'0 0.0
2014-Dec-15 23:17N 22°34' E 120°18'0 0.0
2014-Dec-15 22:29N 22°34' E 120°18'0 0.0
2014-Dec-15 21:23N 22°34' E 120°18'0 0.0
2014-Dec-15 20:29N 22°34' E 120°18'0 0.0
2014-Dec-15 19:29N 22°34' E 120°18'0 0.0
2014-Dec-15 18:33N 22°34' E 120°18'2 1.6
2014-Dec-15 17:33N 22°33' E 120°18'7 6.6
2014-Dec-15 16:33N 22°30' E 120°11'6 6.0
2014-Dec-15 15:33N 22°24' E 120°09'1 0.7
2014-Dec-15 14:33N 22°24' E 120°08'4 3.9
2014-Dec-15 13:33N 22°20' E 120°07'9 8.8
2014-Dec-15 12:33N 22°12' E 120°08'11 8.9
2014-Dec-15 11:16N 22°02' E 120°15'  

Dump ship's entire track history